sensor_id;sensor_type;location;lat;lon;timestamp;pressure;altitude;pressure_sealevel;temperature;humidity
22605;BME280;11469;49.024;8.246;2023-12-14T00:00:23;99402.25;;;7.39;100.00
22605;BME280;11469;49.024;8.246;2023-12-14T00:02:48;99401.78;;;7.37;100.00
22605;BME280;11469;49.024;8.246;2023-12-14T00:05:13;99402.16;;;7.36;100.00
22605;BME280;11469;49.024;8.246;2023-12-14T00:07:39;99410.06;;;7.33;100.00
22605;BME280;11469;49.024;8.246;2023-12-14T00:10:05;99411.31;;;7.36;100.00
22605;BME280;11469;49.024;8.246;2023-12-14T00:12:30;99406.84;;;7.31;100.00
22605;BME280;11469;49.024;8.246;2023-12-14T00:14:56;99412.34;;;7.28;100.00
22605;BME280;11469;49.024;8.246;2023-12-14T00:17:22;99417.00;;;7.24;100.00
22605;BME280;11469;49.024;8.246;2023-12-14T00:19:47;99413.69;;;7.18;100.00
22605;BME280;11469;49.024;8.246;2023-12-14T00:22:12;99429.53;;;7.14;100.00
22605;BME280;11469;49.024;8.246;2023-12-14T00:24:38;99425.94;;;7.14;100.00
22605;BME280;11469;49.024;8.246;2023-12-14T00:27:03;99434.59;;;7.09;100.00
22605;BME280;11469;49.024;8.246;2023-12-14T00:29:29;99437.38;;;7.09;100.00
22605;BME280;11469;49.024;8.246;2023-12-14T00:31:54;99433.78;;;7.08;100.00
22605;BME280;11469;49.024;8.246;2023-12-14T00:34:20;99443.69;;;7.06;100.00
22605;BME280;11469;49.024;8.246;2023-12-14T00:36:45;99448.53;;;7.09;100.00
22605;BME280;11469;49.024;8.246;2023-12-14T00:39:11;99446.09;;;7.07;100.00
22605;BME280;11469;49.024;8.246;2023-12-14T00:41:36;99445.75;;;7.09;100.00
22605;BME280;11469;49.024;8.246;2023-12-14T00:44:02;99445.34;;;7.10;100.00
22605;BME280;11469;49.024;8.246;2023-12-14T00:46:27;99456.13;;;7.12;100.00
22605;BME280;11469;49.024;8.246;2023-12-14T00:48:53;99458.56;;;7.13;100.00
22605;BME280;11469;49.024;8.246;2023-12-14T00:51:18;99469.69;;;7.13;100.00
22605;BME280;11469;49.024;8.246;2023-12-14T00:53:43;99467.28;;;7.12;100.00
22605;BME280;11469;49.024;8.246;2023-12-14T00:56:09;99480.84;;;7.13;100.00
22605;BME280;11469;49.024;8.246;2023-12-14T00:58:34;99487.22;;;7.14;100.00
22605;BME280;11469;49.024;8.246;2023-12-14T01:01:00;99487.31;;;7.17;100.00
22605;BME280;11469;49.024;8.246;2023-12-14T01:03:25;99493.34;;;7.19;100.00
22605;BME280;11469;49.024;8.246;2023-12-14T01:05:50;99496.13;;;7.19;100.00
22605;BME280;11469;49.024;8.246;2023-12-14T01:08:16;99500.91;;;7.19;100.00
22605;BME280;11469;49.024;8.246;2023-12-14T01:10:41;99498.09;;;7.19;100.00
22605;BME280;11469;49.024;8.246;2023-12-14T01:13:07;99510.44;;;7.18;100.00
22605;BME280;11469;49.024;8.246;2023-12-14T01:15:33;99500.91;;;7.19;100.00
22605;BME280;11469;49.024;8.246;2023-12-14T01:17:58;99510.50;;;7.21;100.00
22605;BME280;11469;49.024;8.246;2023-12-14T01:20:24;99516.91;;;7.22;100.00
22605;BME280;11469;49.024;8.246;2023-12-14T01:22:49;99522.47;;;7.22;100.00
22605;BME280;11469;49.024;8.246;2023-12-14T01:25:14;99511.78;;;7.24;100.00
22605;BME280;11469;49.024;8.246;2023-12-14T01:27:40;99521.66;;;7.21;100.00
22605;BME280;11469;49.024;8.246;2023-12-14T01:30:05;99522.91;;;7.24;100.00
22605;BME280;11469;49.024;8.246;2023-12-14T01:32:31;99517.25;;;7.20;100.00
22605;BME280;11469;49.024;8.246;2023-12-14T01:34:56;99520.84;;;7.21;100.00
22605;BME280;11469;49.024;8.246;2023-12-14T01:37:22;99524.81;;;7.20;100.00
22605;BME280;11469;49.024;8.246;2023-12-14T01:39:47;99539.91;;;7.19;100.00
22605;BME280;11469;49.024;8.246;2023-12-14T01:42:12;99537.84;;;7.16;100.00
22605;BME280;11469;49.024;8.246;2023-12-14T01:44:38;99546.19;;;7.16;100.00
22605;BME280;11469;49.024;8.246;2023-12-14T01:47:04;99541.88;;;7.18;100.00
22605;BME280;11469;49.024;8.246;2023-12-14T01:49:29;99554.66;;;7.19;100.00
22605;BME280;11469;49.024;8.246;2023-12-14T01:51:55;99560.13;;;7.16;100.00
22605;BME280;11469;49.024;8.246;2023-12-14T01:54:20;99560.50;;;7.14;100.00
22605;BME280;11469;49.024;8.246;2023-12-14T01:56:45;99561.31;;;7.15;100.00
22605;BME280;11469;49.024;8.246;2023-12-14T01:59:11;99564.19;;;7.18;100.00
22605;BME280;11469;49.024;8.246;2023-12-14T02:01:43;99566.97;;;7.18;100.00
22605;BME280;11469;49.024;8.246;2023-12-14T02:04:10;99573.72;;;7.17;100.00
22605;BME280;11469;49.024;8.246;2023-12-14T02:06:36;99576.50;;;7.17;100.00
22605;BME280;11469;49.024;8.246;2023-12-14T02:09:02;99578.47;;;7.17;100.00
22605;BME280;11469;49.024;8.246;2023-12-14T02:11:27;99580.09;;;7.18;100.00
22605;BME280;11469;49.024;8.246;2023-12-14T02:13:53;99580.09;;;7.18;100.00
22605;BME280;11469;49.024;8.246;2023-12-14T02:16:18;99575.06;;;7.23;100.00
22605;BME280;11469;49.024;8.246;2023-12-14T02:18:43;99579.81;;;7.23;100.00
22605;BME280;11469;49.024;8.246;2023-12-14T02:21:10;99579.00;;;7.22;100.00
22605;BME280;11469;49.024;8.246;2023-12-14T02:23:35;99584.59;;;7.22;100.00
22605;BME280;11469;49.024;8.246;2023-12-14T02:26:00;99584.13;;;7.20;100.00
22605;BME280;11469;49.024;8.246;2023-12-14T02:28:26;99585.31;;;7.19;100.00
22605;BME280;11469;49.024;8.246;2023-12-14T02:30:51;99588.53;;;7.21;100.00
22605;BME280;11469;49.024;8.246;2023-12-14T02:33:16;99594.84;;;7.18;100.00
22605;BME280;11469;49.024;8.246;2023-12-14T02:35:42;99593.66;;;7.19;100.00
22605;BME280;11469;49.024;8.246;2023-12-14T02:38:08;99600.06;;;7.20;100.00
22605;BME280;11469;49.024;8.246;2023-12-14T02:40:33;99607.25;;;7.21;100.00
22605;BME280;11469;49.024;8.246;2023-12-14T02:42:59;99613.63;;;7.21;100.00
22605;BME280;11469;49.024;8.246;2023-12-14T02:45:24;99614.78;;;7.20;100.00
22605;BME280;11469;49.024;8.246;2023-12-14T02:47:49;99611.19;;;7.20;100.00
22605;BME280;11469;49.024;8.246;2023-12-14T02:50:17;99615.59;;;7.21;100.00
22605;BME280;11469;49.024;8.246;2023-12-14T02:52:42;99617.59;;;7.20;100.00
22605;BME280;11469;49.024;8.246;2023-12-14T02:55:08;99625.13;;;7.20;100.00
22605;BME280;11469;49.024;8.246;2023-12-14T02:57:33;99627.56;;;7.21;100.00
22605;BME280;11469;49.024;8.246;2023-12-14T02:59:58;99629.63;;;7.24;100.00
22605;BME280;11469;49.024;8.246;2023-12-14T03:02:24;99641.25;;;7.26;100.00
22605;BME280;11469;49.024;8.246;2023-12-14T03:04:49;99638.00;;;7.24;100.00
22605;BME280;11469;49.024;8.246;2023-12-14T03:07:14;99644.03;;;7.26;100.00
22605;BME280;11469;49.024;8.246;2023-12-14T03:09:40;99649.25;;;7.28;100.00
22605;BME280;11469;49.024;8.246;2023-12-14T03:12:10;99655.63;;;7.28;100.00
22605;BME280;11469;49.024;8.246;2023-12-14T03:14:35;99656.88;;;7.31;100.00
22605;BME280;11469;49.024;8.246;2023-12-14T03:17:01;99663.28;;;7.31;100.00
22605;BME280;11469;49.024;8.246;2023-12-14T03:19:28;99660.84;;;7.30;100.00
22605;BME280;11469;49.024;8.246;2023-12-14T03:21:53;99662.47;;;7.31;100.00
22605;BME280;11469;49.024;8.246;2023-12-14T03:24:19;99668.50;;;7.33;100.00
22605;BME280;11469;49.024;8.246;2023-12-14T03:26:44;99671.28;;;7.33;100.00
22605;BME280;11469;49.024;8.246;2023-12-14T03:29:10;99674.06;;;7.33;100.00
22605;BME280;11469;49.024;8.246;2023-12-14T03:31:35;99672.53;;;7.36;100.00
22605;BME280;11469;49.024;8.246;2023-12-14T03:34:01;99682.88;;;7.35;100.00
22605;BME280;11469;49.024;8.246;2023-12-14T03:36:26;99680.56;;;7.37;100.00
22605;BME280;11469;49.024;8.246;2023-12-14T03:38:53;99694.84;;;7.36;100.00
22605;BME280;11469;49.024;8.246;2023-12-14T03:41:18;99693.22;;;7.35;100.00
22605;BME280;11469;49.024;8.246;2023-12-14T03:43:44;99698.44;;;7.36;100.00
22605;BME280;11469;49.024;8.246;2023-12-14T03:46:09;99707.25;;;7.38;100.00
22605;BME280;11469;49.024;8.246;2023-12-14T03:48:35;99713.66;;;7.39;100.00
22605;BME280;11469;49.024;8.246;2023-12-14T03:51:04;99708.53;;;7.41;100.00
22605;BME280;11469;49.024;8.246;2023-12-14T03:53:30;99712.94;;;7.42;100.00
22605;BME280;11469;49.024;8.246;2023-12-14T03:55:55;99722.09;;;7.42;100.00
22605;BME280;11469;49.024;8.246;2023-12-14T03:58:21;99724.19;;;7.45;100.00
22605;BME280;11469;49.024;8.246;2023-12-14T04:00:46;99721.41;;;7.45;100.00
22605;BME280;11469;49.024;8.246;2023-12-14T04:03:12;99726.50;;;7.43;100.00
22605;BME280;11469;49.024;8.246;2023-12-14T04:05:37;99742.78;;;7.41;100.00
22605;BME280;11469;49.024;8.246;2023-12-14T04:08:04;99738.03;;;7.42;100.00
22605;BME280;11469;49.024;8.246;2023-12-14T04:10:30;99737.31;;;7.45;100.00
22605;BME280;11469;49.024;8.246;2023-12-14T04:12:55;99736.84;;;7.43;100.00
22605;BME280;11469;49.024;8.246;2023-12-14T04:15:21;99738.47;;;7.44;100.00
22605;BME280;11469;49.024;8.246;2023-12-14T04:17:46;99743.59;;;7.42;100.00
22605;BME280;11469;49.024;8.246;2023-12-14T04:20:13;99747.56;;;7.41;100.00
22605;BME280;11469;49.024;8.246;2023-12-14T04:22:39;99760.69;;;7.40;100.00
22605;BME280;11469;49.024;8.246;2023-12-14T04:25:05;99757.91;;;7.40;100.00
22605;BME280;11469;49.024;8.246;2023-12-14T04:27:30;99765.91;;;7.42;100.00
22605;BME280;11469;49.024;8.246;2023-12-14T04:29:56;99764.75;;;7.43;100.00
22605;BME280;11469;49.024;8.246;2023-12-14T04:32:21;99768.69;;;7.42;100.00
22605;BME280;11469;49.024;8.246;2023-12-14T04:34:47;99765.09;;;7.41;100.00
22605;BME280;11469;49.024;8.246;2023-12-14T04:37:12;99776.25;;;7.41;100.00
22605;BME280;11469;49.024;8.246;2023-12-14T04:39:37;99769.03;;;7.40;100.00
22605;BME280;11469;49.024;8.246;2023-12-14T04:42:03;99781.81;;;7.41;100.00
22605;BME280;11469;49.024;8.246;2023-12-14T04:44:28;99786.59;;;7.41;100.00
22605;BME280;11469;49.024;8.246;2023-12-14T04:46:54;99787.41;;;7.41;100.00
22605;BME280;11469;49.024;8.246;2023-12-14T04:49:19;99796.56;;;7.42;100.00
22605;BME280;11469;49.024;8.246;2023-12-14T04:51:45;99800.97;;;7.43;100.00
22605;BME280;11469;49.024;8.246;2023-12-14T04:54:10;99809.34;;;7.43;100.00
22605;BME280;11469;49.024;8.246;2023-12-14T04:56:36;99807.72;;;7.42;100.00
22605;BME280;11469;49.024;8.246;2023-12-14T04:59:01;99810.88;;;7.40;100.00
22605;BME280;11469;49.024;8.246;2023-12-14T05:01:27;99820.03;;;7.41;100.00
22605;BME280;11469;49.024;8.246;2023-12-14T05:03:53;99823.63;;;7.41;100.00
22605;BME280;11469;49.024;8.246;2023-12-14T05:06:18;99824.81;;;7.40;100.00
22605;BME280;11469;49.024;8.246;2023-12-14T05:08:44;99832.00;;;7.41;100.00
22605;BME280;11469;49.024;8.246;2023-12-14T05:11:09;99835.16;;;7.40;100.00
22605;BME280;11469;49.024;8.246;2023-12-14T05:13:35;99839.56;;;7.41;100.00
22605;BME280;11469;49.024;8.246;2023-12-14T05:16:00;99841.19;;;7.42;100.00
22605;BME280;11469;49.024;8.246;2023-12-14T05:18:26;99856.38;;;7.44;100.00
22605;BME280;11469;49.024;8.246;2023-12-14T05:20:52;99858.00;;;7.45;100.00
22605;BME280;11469;49.024;8.246;2023-12-14T05:23:17;99864.75;;;7.44;100.00
22605;BME280;11469;49.024;8.246;2023-12-14T05:25:44;99868.34;;;7.45;100.00
22605;BME280;11469;49.024;8.246;2023-12-14T05:28:10;99869.97;;;7.46;100.00
22605;BME280;11469;49.024;8.246;2023-12-14T05:30:36;99875.44;;;7.42;100.00
22605;BME280;11469;49.024;8.246;2023-12-14T05:33:01;99871.84;;;7.42;100.00
22605;BME280;11469;49.024;8.246;2023-12-14T05:35:27;99885.78;;;7.42;100.00
22605;BME280;11469;49.024;8.246;2023-12-14T05:37:52;99883.00;;;7.42;100.00
22605;BME280;11469;49.024;8.246;2023-12-14T05:40:18;99886.94;;;7.41;100.00
22605;BME280;11469;49.024;8.246;2023-12-14T05:42:43;99896.94;;;7.42;100.00
22605;BME280;11469;49.024;8.246;2023-12-14T05:45:09;99895.31;;;7.41;100.00
22605;BME280;11469;49.024;8.246;2023-12-14T05:47:34;99906.13;;;7.42;100.00
22605;BME280;11469;49.024;8.246;2023-12-14T05:50:01;99903.69;;;7.41;100.00
22605;BME280;11469;49.024;8.246;2023-12-14T05:52:26;99910.41;;;7.40;100.00
22605;BME280;11469;49.024;8.246;2023-12-14T05:54:52;99925.16;;;7.40;100.00
22605;BME280;11469;49.024;8.246;2023-12-14T05:57:17;99926.44;;;7.43;100.00
22605;BME280;11469;49.024;8.246;2023-12-14T05:59:43;99925.28;;;7.44;100.00
22605;BME280;11469;49.024;8.246;2023-12-14T06:02:08;99936.09;;;7.45;100.00
22605;BME280;11469;49.024;8.246;2023-12-14T06:04:34;99946.06;;;7.46;100.00
22605;BME280;11469;49.024;8.246;2023-12-14T06:06:59;99945.25;;;7.46;100.00
22605;BME280;11469;49.024;8.246;2023-12-14T06:09:25;99950.03;;;7.45;100.00
22605;BME280;11469;49.024;8.246;2023-12-14T06:11:59;99954.78;;;7.45;100.00
22605;BME280;11469;49.024;8.246;2023-12-14T06:14:24;99954.78;;;7.45;100.00
22605;BME280;11469;49.024;8.246;2023-12-14T06:16:50;99962.81;;;7.46;100.00
22605;BME280;11469;49.024;8.246;2023-12-14T06:19:15;99970.25;;;7.42;100.00
22605;BME280;11469;49.024;8.246;2023-12-14T06:21:41;99968.63;;;7.41;100.00
22605;BME280;11469;49.024;8.246;2023-12-14T06:24:06;99976.97;;;7.41;100.00
22605;BME280;11469;49.024;8.246;2023-12-14T06:26:31;99975.69;;;7.39;100.00
22605;BME280;11469;49.024;8.246;2023-12-14T06:28:57;99974.91;;;7.38;100.00
22605;BME280;11469;49.024;8.246;2023-12-14T06:31:22;99980.47;;;7.38;100.00
22605;BME280;11469;49.024;8.246;2023-12-14T06:33:48;99988.38;;;7.36;100.00
22605;BME280;11469;49.024;8.246;2023-12-14T06:36:16;99995.91;;;7.36;100.00
22605;BME280;11469;49.024;8.246;2023-12-14T06:38:45;100000.34;;;7.37;100.00
22605;BME280;11469;49.024;8.246;2023-12-14T06:41:22;100000.78;;;7.39;100.00
22605;BME280;11469;49.024;8.246;2023-12-14T06:43:48;100007.06;;;7.36;100.00
22605;BME280;11469;49.024;8.246;2023-12-14T06:46:14;100007.41;;;7.34;100.00
22605;BME280;11469;49.024;8.246;2023-12-14T06:48:40;100010.22;;;7.34;100.00
22605;BME280;11469;49.024;8.246;2023-12-14T06:51:05;100019.28;;;7.31;100.00
22605;BME280;11469;49.024;8.246;2023-12-14T06:53:31;100020.66;;;7.25;100.00
22605;BME280;11469;49.024;8.246;2023-12-14T06:55:56;100028.91;;;7.21;100.00
22605;BME280;11469;49.024;8.246;2023-12-14T06:58:22;100034.94;;;7.23;100.00
22605;BME280;11469;49.024;8.246;2023-12-14T07:00:47;100042.50;;;7.23;100.00
22605;BME280;11469;49.024;8.246;2023-12-14T07:03:13;100048.53;;;7.25;100.00
22605;BME280;11469;49.024;8.246;2023-12-14T07:05:39;100062.59;;;7.28;100.00
22605;BME280;11469;49.024;8.246;2023-12-14T07:08:04;100065.72;;;7.27;100.00
22605;BME280;11469;49.024;8.246;2023-12-14T07:10:30;100065.59;;;7.23;100.00
22605;BME280;11469;49.024;8.246;2023-12-14T07:12:55;100068.38;;;7.23;100.00
22605;BME280;11469;49.024;8.246;2023-12-14T07:15:21;100076.63;;;7.20;100.00
22605;BME280;11469;49.024;8.246;2023-12-14T07:17:46;100088.47;;;7.17;100.00
22605;BME280;11469;49.024;8.246;2023-12-14T07:20:12;100087.19;;;7.14;100.00
22605;BME280;11469;49.024;8.246;2023-12-14T07:22:37;100088.81;;;7.15;100.00
22605;BME280;11469;49.024;8.246;2023-12-14T07:25:03;100088.34;;;7.13;100.00
22605;BME280;11469;49.024;8.246;2023-12-14T07:27:29;100093.13;;;7.13;100.00
22605;BME280;11469;49.024;8.246;2023-12-14T07:29:54;100092.28;;;7.12;100.00
22605;BME280;11469;49.024;8.246;2023-12-14T07:32:20;100103.78;;;7.11;100.00
22605;BME280;11469;49.024;8.246;2023-12-14T07:34:46;100099.03;;;7.11;100.00
22605;BME280;11469;49.024;8.246;2023-12-14T07:37:12;100112.28;;;7.14;100.00
22605;BME280;11469;49.024;8.246;2023-12-14T07:39:37;100104.72;;;7.15;100.00
22605;BME280;11469;49.024;8.246;2023-12-14T07:42:03;100113.09;;;7.15;100.00
22605;BME280;11469;49.024;8.246;2023-12-14T07:44:28;100122.25;;;7.15;100.00
22605;BME280;11469;49.024;8.246;2023-12-14T07:46:56;100130.63;;;7.15;100.00
22605;BME280;11469;49.024;8.246;2023-12-14T07:49:21;100129.47;;;7.16;100.00
22605;BME280;11469;49.024;8.246;2023-12-14T07:51:49;100141.56;;;7.20;100.00
22605;BME280;11469;49.024;8.246;2023-12-14T07:54:14;100140.06;;;7.23;100.00
22605;BME280;11469;49.024;8.246;2023-12-14T07:56:40;100133.44;;;7.27;100.00
22605;BME280;11469;49.024;8.246;2023-12-14T07:59:06;100142.16;;;7.26;100.00
22605;BME280;11469;49.024;8.246;2023-12-14T08:01:33;100145.88;;;7.30;100.00
22605;BME280;11469;49.024;8.246;2023-12-14T08:03:59;100151.44;;;7.30;100.00
22605;BME280;11469;49.024;8.246;2023-12-14T08:06:24;100152.59;;;7.29;100.00
22605;BME280;11469;49.024;8.246;2023-12-14T08:08:50;100171.19;;;7.25;100.00
22605;BME280;11469;49.024;8.246;2023-12-14T08:11:15;100180.97;;;7.43;100.00
22605;BME280;11469;49.024;8.246;2023-12-14T08:13:41;100180.63;;;7.57;100.00
22605;BME280;11469;49.024;8.246;2023-12-14T08:16:07;100183.66;;;7.64;100.00
22605;BME280;11469;49.024;8.246;2023-12-14T08:18:33;100201.09;;;7.61;100.00
22605;BME280;11469;49.024;8.246;2023-12-14T08:20:58;100205.72;;;7.57;100.00
22605;BME280;11469;49.024;8.246;2023-12-14T08:23:24;100216.06;;;7.56;100.00
22605;BME280;11469;49.024;8.246;2023-12-14T08:25:55;100219.59;;;7.53;100.00
22605;BME280;11469;49.024;8.246;2023-12-14T08:28:24;100228.88;;;7.57;100.00
22605;BME280;11469;49.024;8.246;2023-12-14T08:30:49;100228.28;;;7.52;100.00
22605;BME280;11469;49.024;8.246;2023-12-14T08:33:15;100231.22;;;7.55;100.00
22605;BME280;11469;49.024;8.246;2023-12-14T08:35:40;100230.03;;;7.56;100.00
22605;BME280;11469;49.024;8.246;2023-12-14T08:38:06;100233.63;;;7.57;100.00
22605;BME280;11469;49.024;8.246;2023-12-14T08:40:31;100237.69;;;7.59;100.00
22605;BME280;11469;49.024;8.246;2023-12-14T08:42:57;100246.06;;;7.59;100.00
22605;BME280;11469;49.024;8.246;2023-12-14T08:45:22;100249.66;;;7.60;100.00
22605;BME280;11469;49.024;8.246;2023-12-14T08:47:48;100238.63;;;7.63;100.00
22605;BME280;11469;49.024;8.246;2023-12-14T08:50:13;100236.31;;;7.65;100.00
22605;BME280;11469;49.024;8.246;2023-12-14T08:52:38;100252.72;;;7.67;100.00
22605;BME280;11469;49.024;8.246;2023-12-14T08:55:04;100262.72;;;7.68;100.00
22605;BME280;11469;49.024;8.246;2023-12-14T08:57:30;100283.09;;;7.81;100.00
22605;BME280;11469;49.024;8.246;2023-12-14T08:59:56;100288.69;;;7.93;100.00
22605;BME280;11469;49.024;8.246;2023-12-14T09:02:21;100294.50;;;7.88;100.00
22605;BME280;11469;49.024;8.246;2023-12-14T09:04:47;100296.03;;;7.97;100.00
22605;BME280;11469;49.024;8.246;2023-12-14T09:07:12;100285.78;;;8.02;100.00
22605;BME280;11469;49.024;8.246;2023-12-14T09:09:38;100304.97;;;8.03;100.00
22605;BME280;11469;49.024;8.246;2023-12-14T09:12:03;100312.97;;;8.05;100.00
22605;BME280;11469;49.024;8.246;2023-12-14T09:14:29;100319.84;;;8.07;100.00
22605;BME280;11469;49.024;8.246;2023-12-14T09:16:54;100316.03;;;8.12;100.00
22605;BME280;11469;49.024;8.246;2023-12-14T09:19:20;100319.75;;;8.16;100.00
22605;BME280;11469;49.024;8.246;2023-12-14T09:21:45;100324.88;;;8.14;100.00
22605;BME280;11469;49.024;8.246;2023-12-14T09:24:11;100330.56;;;8.17;100.00
22605;BME280;11469;49.024;8.246;2023-12-14T09:26:36;100333.81;;;8.19;100.00
22605;BME280;11469;49.024;8.246;2023-12-14T09:29:02;100334.28;;;8.21;100.00
22605;BME280;11469;49.024;8.246;2023-12-14T09:31:27;100337.44;;;8.20;100.00
22605;BME280;11469;49.024;8.246;2023-12-14T09:33:53;100343.13;;;8.23;100.00
22605;BME280;11469;49.024;8.246;2023-12-14T09:36:18;100358.38;;;8.26;100.00
22605;BME280;11469;49.024;8.246;2023-12-14T09:38:44;100362.47;;;8.28;100.00
22605;BME280;11469;49.024;8.246;2023-12-14T09:41:10;100364.25;;;8.33;100.00
22605;BME280;11469;49.024;8.246;2023-12-14T09:43:37;100376.00;;;8.39;100.00
22605;BME280;11469;49.024;8.246;2023-12-14T09:46:02;100387.66;;;8.41;100.00
22605;BME280;11469;49.024;8.246;2023-12-14T09:48:28;100384.84;;;8.41;100.00
22605;BME280;11469;49.024;8.246;2023-12-14T09:50:55;100388.47;;;8.41;100.00
22605;BME280;11469;49.024;8.246;2023-12-14T09:53:20;100393.00;;;8.46;100.00
22605;BME280;11469;49.024;8.246;2023-12-14T09:55:45;100396.34;;;8.51;100.00
22605;BME280;11469;49.024;8.246;2023-12-14T09:58:11;100395.44;;;8.59;100.00
22605;BME280;11469;49.024;8.246;2023-12-14T10:00:39;100391.94;;;8.62;100.00
22605;BME280;11469;49.024;8.246;2023-12-14T10:03:22;100398.78;;;9.02;100.00
22605;BME280;11469;49.024;8.246;2023-12-14T10:05:48;100405.50;;;9.37;100.00
22605;BME280;11469;49.024;8.246;2023-12-14T10:08:15;100407.13;;;9.38;100.00
22605;BME280;11469;49.024;8.246;2023-12-14T10:10:42;100406.66;;;9.36;100.00
22605;BME280;11469;49.024;8.246;2023-12-14T10:13:07;100411.69;;;9.18;100.00
22605;BME280;11469;49.024;8.246;2023-12-14T10:15:43;100414.63;;;9.10;100.00
22605;BME280;11469;49.024;8.246;2023-12-14T10:18:09;100414.28;;;8.99;100.00
22605;BME280;11469;49.024;8.246;2023-12-14T10:20:35;100413.94;;;9.01;100.00
22605;BME280;11469;49.024;8.246;2023-12-14T10:23:04;100418.34;;;9.02;100.00
22605;BME280;11469;49.024;8.246;2023-12-14T10:25:29;100425.94;;;9.01;100.00
22605;BME280;11469;49.024;8.246;2023-12-14T10:27:56;100414.41;;;9.03;100.00
22605;BME280;11469;49.024;8.246;2023-12-14T10:30:22;100422.91;;;9.06;100.00
22605;BME280;11469;49.024;8.246;2023-12-14T10:32:48;100420.44;;;9.05;100.00
22605;BME280;11469;49.024;8.246;2023-12-14T10:35:14;100424.06;;;9.05;100.00
22605;BME280;11469;49.024;8.246;2023-12-14T10:37:42;100418.81;;;9.04;100.00
22605;BME280;11469;49.024;8.246;2023-12-14T10:40:09;100437.09;;;9.01;100.00
22605;BME280;11469;49.024;8.246;2023-12-14T10:42:36;100428.03;;;9.04;100.00
22605;BME280;11469;49.024;8.246;2023-12-14T10:45:03;100438.75;;;9.02;100.00
22605;BME280;11469;49.024;8.246;2023-12-14T10:47:30;100434.78;;;9.03;100.00
22605;BME280;11469;49.024;8.246;2023-12-14T10:49:56;100437.22;;;9.05;100.00
22605;BME280;11469;49.024;8.246;2023-12-14T10:52:24;100439.56;;;9.03;100.00
22605;BME280;11469;49.024;8.246;2023-12-14T10:55:04;100445.03;;;8.99;100.00
22605;BME280;11469;49.024;8.246;2023-12-14T10:57:30;100451.00;;;8.97;100.00
22605;BME280;11469;49.024;8.246;2023-12-14T11:00:01;100463.44;;;9.00;100.00
22605;BME280;11469;49.024;8.246;2023-12-14T11:02:28;100462.19;;;8.97;100.00
22605;BME280;11469;49.024;8.246;2023-12-14T11:04:54;100463.78;;;8.98;100.00
22605;BME280;11469;49.024;8.246;2023-12-14T11:07:50;100463.22;;;8.93;100.00
22605;BME280;11469;49.024;8.246;2023-12-14T11:10:21;100462.28;;;8.89;100.00
22605;BME280;11469;49.024;8.246;2023-12-14T11:12:56;100470.34;;;8.90;100.00
22605;BME280;11469;49.024;8.246;2023-12-14T11:15:23;100466.50;;;8.95;100.00
22605;BME280;11469;49.024;8.246;2023-12-14T11:21:01;100476.94;;;8.98;100.00
22605;BME280;11469;49.024;8.246;2023-12-14T11:23:31;100484.44;;;8.94;100.00
22605;BME280;11469;49.024;8.246;2023-12-14T11:25:59;100486.53;;;8.97;100.00
22605;BME280;11469;49.024;8.246;2023-12-14T11:28:27;100484.78;;;8.92;100.00
22605;BME280;11469;49.024;8.246;2023-12-14T11:30:54;100485.59;;;8.93;100.00
22605;BME280;11469;49.024;8.246;2023-12-14T11:33:19;100488.38;;;8.93;100.00
22605;BME280;11469;49.024;8.246;2023-12-14T11:35:45;100497.25;;;8.95;100.00
22605;BME280;11469;49.024;8.246;2023-12-14T11:38:11;100509.72;;;8.97;100.00
22605;BME280;11469;49.024;8.246;2023-12-14T11:40:47;100508.50;;;8.98;100.00
22605;BME280;11469;49.024;8.246;2023-12-14T11:43:14;100510.06;;;8.96;100.00
22605;BME280;11469;49.024;8.246;2023-12-14T11:45:41;100516.47;;;8.96;100.00
22605;BME280;11469;49.024;8.246;2023-12-14T11:48:10;100530.44;;;8.96;100.00
22605;BME280;11469;49.024;8.246;2023-12-14T11:50:37;100525.88;;;9.04;100.00
22605;BME280;11469;49.024;8.246;2023-12-14T11:53:04;100523.78;;;9.01;100.00
22605;BME280;11469;49.024;8.246;2023-12-14T11:55:31;100521.09;;;9.05;100.00
22605;BME280;11469;49.024;8.246;2023-12-14T11:57:57;100520.41;;;8.95;100.00
22605;BME280;11469;49.024;8.246;2023-12-14T12:00:27;100524.03;;;8.96;100.00
22605;BME280;11469;49.024;8.246;2023-12-14T12:05:46;100528.47;;;8.97;100.00
22605;BME280;11469;49.024;8.246;2023-12-14T12:08:13;100531.47;;;8.92;100.00
22605;BME280;11469;49.024;8.246;2023-12-14T12:10:40;100530.19;;;8.89;100.00
22605;BME280;11469;49.024;8.246;2023-12-14T12:13:17;100537.84;;;8.80;100.00
22605;BME280;11469;49.024;8.246;2023-12-14T12:15:43;100528.44;;;8.85;100.00
22605;BME280;11469;49.024;8.246;2023-12-14T12:18:10;100537.75;;;8.89;100.00
22605;BME280;11469;49.024;8.246;2023-12-14T12:20:36;100532.03;;;8.85;100.00
22605;BME280;11469;49.024;8.246;2023-12-14T12:23:02;100540.56;;;8.89;100.00
22605;BME280;11469;49.024;8.246;2023-12-14T12:25:29;100538.22;;;8.91;100.00
22605;BME280;11469;49.024;8.246;2023-12-14T12:27:55;100538.09;;;8.87;100.00
22605;BME280;11469;49.024;8.246;2023-12-14T12:30:21;100543.34;;;8.89;100.00
22605;BME280;11469;49.024;8.246;2023-12-14T12:32:48;100541.72;;;8.88;100.00
22605;BME280;11469;49.024;8.246;2023-12-14T12:35:14;100542.19;;;8.90;100.00
22605;BME280;11469;49.024;8.246;2023-12-14T12:37:39;100546.75;;;8.94;100.00
22605;BME280;11469;49.024;8.246;2023-12-14T12:40:06;100546.75;;;8.94;100.00
22605;BME280;11469;49.024;8.246;2023-12-14T12:42:32;100542.06;;;8.98;100.00
22605;BME280;11469;49.024;8.246;2023-12-14T12:44:57;100541.72;;;9.00;100.00
22605;BME280;11469;49.024;8.246;2023-12-14T12:47:23;100536.59;;;9.02;100.00
22605;BME280;11469;49.024;8.246;2023-12-14T12:49:48;100541.13;;;9.07;100.00
22605;BME280;11469;49.024;8.246;2023-12-14T12:52:14;100543.34;;;9.13;100.00
22605;BME280;11469;49.024;8.246;2023-12-14T12:54:40;100548.59;;;9.15;100.00